Aviation Digital Data Service (ADDS)

Output produced by METARs form (0727 UTC 21 February 2017)
found at http://www.aviationweather.gov/adds/metars/
 
KDFW 210529Z 2106/2212 22008KT P6SM SKC 
     FM210700 26004KT 6SM BR SKC 
     FM210900 30006KT 4SM BR SKC 
     FM211400 33015KT P6SM SKC 
     FM220000 34008KT P6SM SKC